KSFM

Sanford Seacoast Regional Airport

Sanford, Maine, USA
METAR KSFM 232256Z AUTO 00000KT 10SM SCT020 OVC030 00/00 A2947 RMK AO2 UPE2157RAB2157E38 SLP985 P0003 T00000000 FZRANO
Observed Flight Rules
Jan-23 @ 22:56 UTC (26 minutes ago) Marginal Visual Flight Rules
Wind Visibility Clouds
Calm 10 miles
  • Scattered at 2,000' AGL
  • Overcast at 3,000' AGL
Temperatures Readings Precipitation
Current 0°C / 32°F
Dewpoint 0°C / 32°F
Humidity 100%
Altimeter 29.47" Hg
Pressure 998.5 hPa
Elevation 74
Current Rain 0.03
METAR KSFM 232256Z AUTO 00000KT 10SM SCT020 OVC030 00/00 A2947 RMK AO2 UPE2157RAB2157E38 SLP985 P0003 T00000000 FZRANO
Observed Flight Rules
Jan-23 @ 22:56 UTC
(26 minutes ago)
MVFR
Wind Visibility
Calm 10 miles
Clouds
  • Scattered at 2,000' AGL
  • Overcast at 3,000' AGL
Temperature Dewpoint
0°C / 32°F 0°C / 32°F
Humidity Altimeter Pressure
100% 29.47" Hg 998.5 hPa
Current Rain
0.03